createdAt,value
2023-04-18T00:00:40.280Z,93112.38
2023-04-18T00:01:38.406Z,93135.03
2023-04-18T00:02:36.655Z,93151.13
2023-04-18T00:03:33.603Z,93150.00
2023-04-18T00:04:30.374Z,93145.69
2023-04-18T00:05:27.298Z,93144.00
2023-04-18T00:06:23.963Z,93151.56
2023-04-18T00:07:20.802Z,93133.50
2023-04-18T00:08:17.449Z,93150.25
2023-04-18T00:09:14.171Z,93150.94
2023-04-18T00:10:10.963Z,93147.34
2023-04-18T00:11:07.747Z,93150.16
2023-04-18T00:12:04.965Z,93148.75
2023-04-18T00:13:01.532Z,93154.13
2023-04-18T00:13:59.432Z,93153.81
2023-04-18T00:14:58.703Z,93146.06
2023-04-18T00:15:55.423Z,93143.22
2023-04-18T00:16:54.278Z,93153.50
2023-04-18T00:17:51.038Z,93156.25
2023-04-18T00:18:48.200Z,93154.06
2023-04-18T00:19:44.756Z,93155.31
2023-04-18T00:20:41.572Z,93152.00
2023-04-18T00:21:39.415Z,93122.09
2023-04-18T00:22:36.542Z,93153.41
2023-04-18T00:23:34.379Z,93158.13
2023-04-18T00:24:31.528Z,93152.38
2023-04-18T00:25:28.219Z,93148.63
2023-04-18T00:26:25.591Z,93152.44
2023-04-18T00:27:22.221Z,93155.16
2023-04-18T00:28:18.796Z,93158.09
2023-04-18T00:29:15.432Z,93151.31
2023-04-18T00:30:12.491Z,93151.81
2023-04-18T00:31:09.145Z,93114.66
2023-04-18T00:32:06.191Z,93109.50
2023-04-18T00:33:04.321Z,93155.19
2023-04-18T00:34:01.089Z,93122.47
2023-04-18T00:34:57.718Z,93159.06
2023-04-18T00:35:54.499Z,93156.31
2023-04-18T00:36:51.070Z,93155.13
2023-04-18T00:37:47.724Z,93112.34
2023-04-18T00:38:44.301Z,93147.34
2023-04-18T00:39:41.078Z,93158.00
2023-04-18T00:40:38.354Z,93146.06
2023-04-18T00:41:34.987Z,93150.16
2023-04-18T00:42:31.888Z,93154.94
2023-04-18T00:43:28.519Z,93155.91
2023-04-18T00:44:25.208Z,93156.41
2023-04-18T00:45:22.308Z,93150.66
2023-04-18T00:46:18.934Z,93117.00
2023-04-18T00:47:19.834Z,93153.53
2023-04-18T00:48:17.224Z,93151.47
2023-04-18T00:49:14.021Z,93149.63
2023-04-18T00:50:11.321Z,93147.41
2023-04-18T00:51:09.844Z,93154.53
2023-04-18T00:52:06.631Z,93152.56
2023-04-18T00:53:03.554Z,93139.19
2023-04-18T00:54:00.660Z,93147.69
2023-04-18T00:54:57.355Z,93127.34
2023-04-18T00:55:53.949Z,93141.50
2023-04-18T00:56:50.697Z,93137.66
2023-04-18T00:57:47.319Z,93134.63
2023-04-18T00:58:43.985Z,93140.00
2023-04-18T00:59:40.855Z,93146.25
2023-04-18T01:00:37.724Z,93118.13
2023-04-18T01:01:34.346Z,93142.22
2023-04-18T01:02:31.303Z,93143.59
2023-04-18T01:03:28.562Z,93128.63
2023-04-18T01:04:25.443Z,93107.19
2023-04-18T01:05:23.485Z,93139.50
2023-04-18T01:06:20.180Z,93142.84
2023-04-18T01:07:16.811Z,93132.63
2023-04-18T01:08:14.209Z,93132.69
2023-04-18T01:09:11.262Z,93129.53
2023-04-18T01:10:09.806Z,93143.88
2023-04-18T01:11:06.492Z,93115.38
2023-04-18T01:12:04.117Z,93125.66
2023-04-18T01:13:14.987Z,93136.81
2023-04-18T01:14:11.898Z,93139.13
2023-04-18T01:15:08.884Z,93126.44
2023-04-18T01:16:05.800Z,93133.94
2023-04-18T01:17:02.781Z,93136.25
2023-04-18T01:18:00.072Z,93136.81
2023-04-18T01:18:57.115Z,93125.31
2023-04-18T01:19:53.925Z,93133.38
2023-04-18T01:20:52.065Z,93132.88
2023-04-18T01:21:48.753Z,93129.53
2023-04-18T01:22:45.538Z,93128.75
2023-04-18T01:23:42.454Z,93128.53
2023-04-18T01:24:39.458Z,93133.09
2023-04-18T01:25:36.507Z,93127.09
2023-04-18T01:26:33.251Z,93099.25
2023-04-18T01:27:29.902Z,93127.78
2023-04-18T01:28:27.810Z,93134.06
2023-04-18T01:29:27.391Z,93114.19
2023-04-18T01:30:24.026Z,93128.22
2023-04-18T01:31:21.441Z,93136.53
2023-04-18T01:32:20.209Z,93132.28
2023-04-18T01:33:16.888Z,93134.94
2023-04-18T01:34:14.706Z,93119.09
2023-04-18T01:35:11.761Z,93134.84
2023-04-18T01:36:08.387Z,93128.75
2023-04-18T01:37:04.980Z,93127.16
2023-04-18T01:38:01.714Z,93127.50
2023-04-18T01:38:59.750Z,93128.75
2023-04-18T01:39:58.215Z,93131.63
2023-04-18T01:40:54.883Z,93131.28
2023-04-18T01:41:51.485Z,93134.91
2023-04-18T01:42:48.069Z,93102.97
2023-04-18T01:43:44.650Z,93130.31
2023-04-18T01:44:41.268Z,93125.47
2023-04-18T01:45:37.889Z,93131.16
2023-04-18T01:46:34.606Z,93129.66
2023-04-18T01:47:31.325Z,93135.91
2023-04-18T01:48:27.960Z,93087.47
2023-04-18T01:49:24.658Z,93126.44
2023-04-18T01:50:21.356Z,93127.50
2023-04-18T01:51:18.034Z,93129.09
2023-04-18T01:52:14.918Z,93129.81
2023-04-18T01:53:11.557Z,93128.31
2023-04-18T01:54:08.150Z,93133.69
2023-04-18T01:55:06.125Z,93133.66
2023-04-18T01:56:02.758Z,93131.56
2023-04-18T01:56:59.371Z,93138.44
2023-04-18T01:57:56.031Z,93135.91
2023-04-18T01:58:52.693Z,93132.97
2023-04-18T01:59:49.310Z,93133.94
2023-04-18T02:00:45.984Z,93133.97
2023-04-18T02:01:42.872Z,93129.19
2023-04-18T02:02:39.672Z,93134.38
2023-04-18T02:03:36.744Z,93135.59
2023-04-18T02:04:33.603Z,93027.34
2023-04-18T02:05:30.267Z,93138.81
2023-04-18T02:06:26.948Z,93138.69
2023-04-18T02:07:23.586Z,93132.56
2023-04-18T02:08:20.318Z,93137.47
2023-04-18T02:09:16.906Z,93142.63
2023-04-18T02:10:13.556Z,93134.22
2023-04-18T02:11:10.317Z,93144.06
2023-04-18T02:12:07.172Z,93131.25
2023-04-18T02:13:04.041Z,93130.97
2023-04-18T02:14:00.871Z,93132.41
2023-04-18T02:14:57.471Z,93139.81
2023-04-18T02:15:54.025Z,93136.28
2023-04-18T02:16:52.139Z,93134.00
2023-04-18T02:17:51.227Z,93140.28
2023-04-18T02:18:47.801Z,93134.66
2023-04-18T02:19:44.382Z,93141.44
2023-04-18T02:20:40.970Z,93143.28
2023-04-18T02:21:37.625Z,93139.06
2023-04-18T02:22:34.182Z,93143.56
2023-04-18T02:23:30.833Z,93140.13
2023-04-18T02:24:27.444Z,93139.78
2023-04-18T02:25:26.945Z,93128.66
2023-04-18T02:26:23.996Z,93092.66
2023-04-18T02:27:20.761Z,93136.19
2023-04-18T02:28:17.431Z,93106.59
2023-04-18T02:29:14.006Z,93132.94
2023-04-18T02:30:11.066Z,93135.53
2023-04-18T02:31:14.388Z,93136.13
2023-04-18T02:32:11.221Z,93134.47
2023-04-18T02:33:07.907Z,93139.59
2023-04-18T02:34:04.676Z,93138.19
2023-04-18T02:35:01.586Z,93128.97
2023-04-18T02:35:58.315Z,93134.38
2023-04-18T02:36:54.893Z,93131.91
2023-04-18T02:37:51.745Z,93133.13
2023-04-18T02:38:48.357Z,93134.97
2023-04-18T02:39:44.913Z,93133.94
2023-04-18T02:40:41.621Z,93133.38
2023-04-18T02:41:39.431Z,93132.78
2023-04-18T02:42:36.463Z,93137.44
2023-04-18T02:43:33.345Z,93132.25
2023-04-18T02:44:29.964Z,93135.97
2023-04-18T02:45:26.578Z,93138.97
2023-04-18T02:46:23.242Z,93136.03
2023-04-18T02:47:19.893Z,93135.47
2023-04-18T02:48:16.594Z,93146.81
2023-04-18T02:49:13.268Z,93138.88
2023-04-18T02:50:10.382Z,93141.41
2023-04-18T02:51:08.544Z,93140.16
2023-04-18T02:52:05.267Z,93126.34
2023-04-18T02:53:01.901Z,93131.41
2023-04-18T02:53:58.666Z,93136.84
2023-04-18T02:54:55.866Z,93136.03
2023-04-18T02:55:52.465Z,93140.16
2023-04-18T02:56:49.254Z,93144.31
2023-04-18T02:57:45.884Z,93140.38
2023-04-18T02:58:42.685Z,93134.13
2023-04-18T02:59:39.311Z,93139.28
2023-04-18T03:00:36.402Z,93141.38
2023-04-18T03:01:33.597Z,93140.31
2023-04-18T03:02:30.365Z,93137.31
2023-04-18T03:03:26.988Z,93139.56
2023-04-18T03:04:23.667Z,93134.56
2023-04-18T03:05:20.541Z,93095.22
2023-04-18T03:06:17.089Z,93144.78
2023-04-18T03:07:13.856Z,93142.75
2023-04-18T03:08:10.622Z,93148.50
2023-04-18T03:09:07.439Z,93147.03
2023-04-18T03:10:04.272Z,93142.06
2023-04-18T03:11:00.962Z,93147.03
2023-04-18T03:11:57.570Z,93145.84
2023-04-18T03:12:54.185Z,93151.81
2023-04-18T03:13:50.813Z,93142.56
2023-04-18T03:14:47.511Z,93147.81
2023-04-18T03:15:44.294Z,93117.91
2023-04-18T03:16:41.066Z,93149.16
2023-04-18T03:17:37.739Z,93128.47
2023-04-18T03:18:34.395Z,93149.78
2023-04-18T03:19:32.125Z,93151.94
2023-04-18T03:20:28.921Z,93148.09
2023-04-18T03:21:25.678Z,93157.56
2023-04-18T03:22:22.347Z,93151.75
2023-04-18T03:23:18.940Z,93155.31
2023-04-18T03:24:15.899Z,93157.63
2023-04-18T03:25:12.607Z,93156.13
2023-04-18T03:26:09.402Z,93168.53
2023-04-18T03:27:06.241Z,93161.78
2023-04-18T03:28:02.825Z,93141.31
2023-04-18T03:28:59.355Z,93159.06
2023-04-18T03:29:55.963Z,93158.69
2023-04-18T03:30:52.595Z,93164.97
2023-04-18T03:31:49.413Z,93168.75
2023-04-18T03:32:46.842Z,93169.69
2023-04-18T03:33:44.313Z,93167.53
2023-04-18T03:34:41.094Z,93169.38
2023-04-18T03:35:37.827Z,93166.50
2023-04-18T03:36:34.557Z,93175.19
2023-04-18T03:37:31.084Z,93172.81
2023-04-18T03:38:27.840Z,93165.06
2023-04-18T03:39:24.421Z,93173.88
2023-04-18T03:40:21.082Z,93173.38
2023-04-18T03:41:17.639Z,93176.44
2023-04-18T03:42:14.195Z,93166.38
2023-04-18T03:43:11.025Z,93175.72
2023-04-18T03:44:07.629Z,93181.09
2023-04-18T03:45:04.501Z,93172.13
2023-04-18T03:46:01.243Z,93175.41
2023-04-18T03:46:58.097Z,93141.94
2023-04-18T03:47:54.975Z,93179.59
2023-04-18T03:48:51.637Z,93176.69
2023-04-18T03:49:48.286Z,93169.72
2023-04-18T03:50:45.009Z,93180.22
2023-04-18T03:51:44.575Z,93175.81
2023-04-18T03:52:41.205Z,93181.97
2023-04-18T03:53:37.750Z,93181.88
2023-04-18T03:54:34.361Z,93178.56
2023-04-18T03:55:31.019Z,93180.03
2023-04-18T03:56:27.693Z,93174.97
2023-04-18T03:57:24.280Z,93170.66
2023-04-18T03:58:23.781Z,93176.81
2023-04-18T03:59:20.479Z,93178.59
2023-04-18T04:00:17.260Z,93162.22
2023-04-18T04:01:13.903Z,93180.44
2023-04-18T04:02:10.638Z,93172.66
2023-04-18T04:03:07.634Z,93181.94
2023-04-18T04:04:04.919Z,93178.47
2023-04-18T04:05:03.253Z,93183.38
2023-04-18T04:06:00.032Z,93180.09
2023-04-18T04:06:56.925Z,93175.75
2023-04-18T04:07:53.526Z,93184.22
2023-04-18T04:08:50.270Z,93170.97
2023-04-18T04:09:46.891Z,93178.81
2023-04-18T04:10:43.500Z,93163.34
2023-04-18T04:11:40.553Z,93172.38
2023-04-18T04:12:37.125Z,93172.25
2023-04-18T04:13:33.765Z,93181.34
2023-04-18T04:14:30.672Z,93182.63
2023-04-18T04:15:27.252Z,93172.38
2023-04-18T04:16:23.913Z,93179.88
2023-04-18T04:17:20.754Z,93182.31
2023-04-18T04:18:17.392Z,93186.84
2023-04-18T04:19:14.986Z,93182.31
2023-04-18T04:20:12.170Z,93172.50
2023-04-18T04:21:08.759Z,93185.31
2023-04-18T04:22:05.515Z,93160.53
2023-04-18T04:23:02.217Z,93184.78
2023-04-18T04:23:58.861Z,93188.91
2023-04-18T04:24:57.801Z,93184.50
2023-04-18T04:25:54.993Z,93164.56
2023-04-18T04:26:51.696Z,93185.28
2023-04-18T04:27:49.719Z,93180.91
2023-04-18T04:28:46.710Z,93155.28
2023-04-18T04:29:43.728Z,93187.16
2023-04-18T04:30:41.661Z,93189.94
2023-04-18T04:31:38.362Z,93186.94
2023-04-18T04:32:35.609Z,93198.41
2023-04-18T04:33:33.355Z,93180.47
2023-04-18T04:34:29.930Z,93181.78
2023-04-18T04:35:26.781Z,93189.97
2023-04-18T04:36:27.294Z,93191.53
2023-04-18T04:37:24.468Z,93186.34
2023-04-18T04:38:23.114Z,93186.88
2023-04-18T04:39:19.764Z,93197.56
2023-04-18T04:40:17.615Z,93204.63
2023-04-18T04:41:14.277Z,93194.34
2023-04-18T04:42:12.241Z,93198.97
2023-04-18T04:43:12.766Z,93197.81
2023-04-18T04:44:09.782Z,93201.53
2023-04-18T04:45:08.273Z,93201.72
2023-04-18T04:46:04.943Z,93203.56
2023-04-18T04:47:01.604Z,93197.75
2023-04-18T04:47:58.252Z,93202.09
2023-04-18T04:48:54.861Z,93197.75
2023-04-18T04:49:51.541Z,93206.00
2023-04-18T04:50:56.154Z,93202.22
2023-04-18T04:51:52.907Z,93205.06
2023-04-18T04:52:49.947Z,93206.47
2023-04-18T04:53:46.569Z,93201.19
2023-04-18T04:54:44.982Z,93206.66
2023-04-18T04:55:41.966Z,93201.94
2023-04-18T04:56:38.575Z,93209.09
2023-04-18T04:57:35.868Z,93212.47
2023-04-18T04:58:32.585Z,93214.09
2023-04-18T04:59:29.186Z,93209.31
2023-04-18T05:00:25.978Z,93208.63
2023-04-18T05:01:22.803Z,93209.53
2023-04-18T05:02:23.251Z,93208.84
2023-04-18T05:03:20.045Z,93219.13
2023-04-18T05:04:17.486Z,93207.16
2023-04-18T05:05:14.743Z,93213.03
2023-04-18T05:06:11.452Z,93214.16
2023-04-18T05:07:08.015Z,93204.53
2023-04-18T05:08:05.016Z,93170.59
2023-04-18T05:09:01.635Z,93204.72
2023-04-18T05:09:58.363Z,93211.59
2023-04-18T05:10:55.628Z,93203.47
2023-04-18T05:11:52.205Z,93215.59
2023-04-18T05:12:49.240Z,93215.97
2023-04-18T05:13:45.796Z,93225.06
2023-04-18T05:14:42.408Z,93215.19
2023-04-18T05:15:39.607Z,93190.88
2023-04-18T05:16:36.543Z,93217.84
2023-04-18T05:17:33.289Z,93222.03
2023-04-18T05:18:29.878Z,93226.88
2023-04-18T05:19:27.279Z,93224.59
2023-04-18T05:20:24.390Z,93218.06
2023-04-18T05:21:20.983Z,93225.13
2023-04-18T05:22:17.650Z,93226.31
2023-04-18T05:23:14.306Z,93222.03
2023-04-18T05:24:11.284Z,93224.78
2023-04-18T05:25:08.423Z,93224.69
2023-04-18T05:26:05.623Z,93226.63
2023-04-18T05:27:02.427Z,93220.94
2023-04-18T05:28:00.450Z,93177.84
2023-04-18T05:28:57.088Z,93217.47
2023-04-18T05:29:53.728Z,93224.50
2023-04-18T05:30:51.105Z,93219.53
2023-04-18T05:31:47.741Z,93223.03
2023-04-18T05:32:44.544Z,93223.03
2023-04-18T05:33:41.148Z,93223.84
2023-04-18T05:34:38.878Z,93214.78
2023-04-18T05:35:35.780Z,93219.47
2023-04-18T05:36:32.400Z,93227.31
2023-04-18T05:37:29.037Z,93221.66
2023-04-18T05:38:25.907Z,93198.50
2023-04-18T05:39:22.529Z,93230.19
2023-04-18T05:40:19.150Z,93227.53
2023-04-18T05:41:15.972Z,93229.06
2023-04-18T05:42:12.512Z,93230.53
2023-04-18T05:43:09.074Z,93234.75
2023-04-18T05:44:17.053Z,93224.22
2023-04-18T05:45:13.871Z,93243.31
2023-04-18T05:46:10.728Z,93143.88
2023-04-18T05:47:07.312Z,93210.91
2023-04-18T05:48:04.215Z,93236.00
2023-04-18T05:49:01.462Z,93240.44
2023-04-18T05:49:58.072Z,93246.19
2023-04-18T05:50:54.648Z,93248.78
2023-04-18T05:51:52.973Z,93231.72
2023-04-18T05:52:49.970Z,93242.34
2023-04-18T05:53:46.554Z,93242.63
2023-04-18T05:54:43.072Z,93244.16
2023-04-18T05:55:41.072Z,93245.50
2023-04-18T05:56:39.686Z,93246.78
2023-04-18T05:57:36.403Z,93195.69
2023-04-18T05:58:33.021Z,93245.97
2023-04-18T05:59:29.863Z,93236.13
2023-04-18T06:00:26.972Z,93237.63
2023-04-18T06:01:23.860Z,93237.72
2023-04-18T06:02:21.157Z,93240.81
2023-04-18T06:03:18.049Z,93241.94
2023-04-18T06:04:16.461Z,93242.06
2023-04-18T06:05:13.668Z,93241.75
2023-04-18T06:06:11.363Z,93244.31
2023-04-18T06:07:09.141Z,93248.19
2023-04-18T06:08:06.080Z,93252.38
2023-04-18T06:09:02.934Z,93245.91
2023-04-18T06:09:59.604Z,93241.75
2023-04-18T06:10:56.175Z,93241.41
2023-04-18T06:11:52.816Z,93243.38
2023-04-18T06:12:49.787Z,93247.28
2023-04-18T06:13:46.377Z,93238.44
2023-04-18T06:14:42.963Z,93238.47
2023-04-18T06:15:39.758Z,93242.44
2023-04-18T06:16:37.726Z,93239.44
2023-04-18T06:17:35.162Z,93249.66
2023-04-18T06:18:31.760Z,93251.88
2023-04-18T06:19:28.375Z,93241.78
2023-04-18T06:20:24.963Z,93237.50
2023-04-18T06:21:22.208Z,93247.25
2023-04-18T06:22:18.878Z,93243.06
2023-04-18T06:23:15.718Z,93190.13
2023-04-18T06:24:12.558Z,93242.91
2023-04-18T06:25:10.229Z,93239.56
2023-04-18T06:26:07.433Z,93247.72
2023-04-18T06:27:05.403Z,93242.41
2023-04-18T06:28:02.034Z,93236.47
2023-04-18T06:28:58.756Z,93201.69
2023-04-18T06:29:55.396Z,93233.31
2023-04-18T06:30:52.014Z,93244.03
2023-04-18T06:31:49.356Z,93242.03
2023-04-18T06:32:45.991Z,93238.78
2023-04-18T06:33:42.569Z,93239.47
2023-04-18T06:34:40.623Z,93233.44
2023-04-18T06:35:37.675Z,93229.22
2023-04-18T06:36:34.348Z,93234.50
2023-04-18T06:37:30.981Z,93234.53
2023-04-18T06:38:27.598Z,93240.94
2023-04-18T06:39:24.741Z,93244.09
2023-04-18T06:40:21.496Z,93235.28
2023-04-18T06:41:18.107Z,93238.97
2023-04-18T06:42:14.654Z,93239.19
2023-04-18T06:43:11.313Z,93244.53
2023-04-18T06:44:07.914Z,93246.44
2023-04-18T06:45:06.492Z,93245.22
2023-04-18T06:46:04.975Z,93248.06
2023-04-18T06:47:01.661Z,93250.81
2023-04-18T06:47:59.790Z,93246.41
2023-04-18T06:48:56.540Z,93252.84
2023-04-18T06:49:53.149Z,93253.88
2023-04-18T06:50:50.055Z,93252.66
2023-04-18T06:51:46.696Z,93224.41
2023-04-18T06:52:45.989Z,93249.97
2023-04-18T06:53:42.755Z,93253.22
2023-04-18T06:54:39.288Z,93247.81
2023-04-18T06:55:36.075Z,93252.75
2023-04-18T06:56:36.269Z,93252.41
2023-04-18T06:57:33.267Z,93264.94
2023-04-18T06:58:30.323Z,93248.41
2023-04-18T06:59:26.964Z,93260.50
2023-04-18T07:00:23.535Z,93254.31
2023-04-18T07:01:20.351Z,93253.47
2023-04-18T07:02:17.036Z,93252.94
2023-04-18T07:03:13.855Z,93252.69
2023-04-18T07:04:11.113Z,93252.69
2023-04-18T07:05:08.155Z,93221.50
2023-04-18T07:06:05.817Z,93252.78
2023-04-18T07:07:03.896Z,93254.75
2023-04-18T07:08:00.708Z,93241.69
2023-04-18T07:09:00.985Z,93258.72
2023-04-18T07:09:57.613Z,93256.34
2023-04-18T07:10:54.259Z,93250.91
2023-04-18T07:11:52.580Z,93250.16
2023-04-18T07:12:52.065Z,93257.22
2023-04-18T07:13:50.397Z,93251.63
2023-04-18T07:14:47.027Z,93252.81
2023-04-18T07:15:43.915Z,93258.81
2023-04-18T07:16:40.625Z,93250.94
2023-04-18T07:17:37.281Z,93246.84
2023-04-18T07:18:37.951Z,93253.91
2023-04-18T07:19:35.078Z,93248.34
2023-04-18T07:20:31.668Z,93253.59
2023-04-18T07:21:28.394Z,93252.22
2023-04-18T07:22:25.024Z,93251.78
2023-04-18T07:23:21.642Z,93255.63
2023-04-18T07:24:18.224Z,93254.38
2023-04-18T07:25:14.802Z,93257.03
2023-04-18T07:26:13.361Z,93258.16
2023-04-18T07:27:09.904Z,93258.41
2023-04-18T07:28:06.470Z,93251.50
2023-04-18T07:29:03.086Z,93250.78
2023-04-18T07:29:59.660Z,93256.59
2023-04-18T07:30:57.008Z,93198.97
2023-04-18T07:31:53.688Z,93256.91
2023-04-18T07:32:50.475Z,93260.38
2023-04-18T07:33:47.156Z,93262.03
2023-04-18T07:34:45.155Z,93204.88
2023-04-18T07:35:41.897Z,93226.28
2023-04-18T07:36:38.519Z,93259.22
2023-04-18T07:37:35.222Z,93259.13
2023-04-18T07:38:33.729Z,93256.38
2023-04-18T07:39:31.962Z,93233.19
2023-04-18T07:40:28.604Z,93254.19
2023-04-18T07:41:25.149Z,93255.13
2023-04-18T07:42:21.766Z,93249.03
2023-04-18T07:43:19.813Z,93255.81
2023-04-18T07:44:18.282Z,93253.09
2023-04-18T07:45:15.564Z,93250.31
2023-04-18T07:46:12.285Z,93257.81
2023-04-18T07:47:12.156Z,93233.16
2023-04-18T07:48:08.817Z,93265.06
2023-04-18T07:49:05.474Z,93262.94
2023-04-18T07:50:02.918Z,93236.13
2023-04-18T07:50:59.709Z,93232.91
2023-04-18T07:51:56.347Z,93264.00
2023-04-18T07:52:53.054Z,93266.38
2023-04-18T07:53:49.591Z,93266.66
2023-04-18T07:54:46.437Z,93262.50
2023-04-18T07:55:45.726Z,93267.38
2023-04-18T07:56:42.288Z,93270.84
2023-04-18T07:57:38.898Z,93255.16
2023-04-18T07:58:36.040Z,93260.41
2023-04-18T07:59:33.062Z,93269.19
2023-04-18T08:00:32.586Z,93271.53
2023-04-18T08:01:29.245Z,93273.84
2023-04-18T08:02:25.970Z,93278.72
2023-04-18T08:03:22.806Z,93276.56
2023-04-18T08:04:19.849Z,93269.38
2023-04-18T08:05:16.711Z,93278.09
2023-04-18T08:06:13.292Z,93278.09
2023-04-18T08:07:09.865Z,93279.25
2023-04-18T08:08:08.122Z,93283.03
2023-04-18T08:09:05.986Z,93282.41
2023-04-18T08:10:03.422Z,93246.69
2023-04-18T08:11:00.093Z,93284.63
2023-04-18T08:11:57.950Z,93287.47
2023-04-18T08:12:54.600Z,93288.56
2023-04-18T08:13:51.219Z,93288.22
2023-04-18T08:14:48.115Z,93271.31
2023-04-18T08:15:44.726Z,93279.50
2023-04-18T08:16:41.503Z,93292.25
2023-04-18T08:17:39.110Z,93289.25
2023-04-18T08:18:36.043Z,93256.22
2023-04-18T08:19:32.667Z,93295.63
2023-04-18T08:20:29.390Z,93286.16
2023-04-18T08:21:26.847Z,93273.88
2023-04-18T08:22:23.502Z,93291.63
2023-04-18T08:23:20.163Z,93293.66
2023-04-18T08:24:16.757Z,93276.94
2023-04-18T08:25:13.390Z,93266.03
2023-04-18T08:26:10.206Z,93278.63
2023-04-18T08:27:07.053Z,93240.72
2023-04-18T08:28:04.190Z,93279.34
2023-04-18T08:29:00.940Z,93288.47
2023-04-18T08:29:58.250Z,93286.91
2023-04-18T08:30:56.565Z,93286.41
2023-04-18T08:31:53.283Z,93293.94
2023-04-18T08:32:49.982Z,93253.13
2023-04-18T08:33:46.624Z,93292.31
2023-04-18T08:34:43.510Z,93292.03
2023-04-18T08:35:40.137Z,93252.03
2023-04-18T08:36:36.767Z,93293.69
2023-04-18T08:37:35.424Z,93293.75
2023-04-18T08:38:32.044Z,93277.50
2023-04-18T08:39:28.691Z,93288.06
2023-04-18T08:40:25.438Z,93286.25
2023-04-18T08:41:25.153Z,93285.69
2023-04-18T08:42:23.684Z,93283.09
2023-04-18T08:43:20.432Z,93290.91
2023-04-18T08:44:17.644Z,93288.03
2023-04-18T08:45:14.705Z,93285.09
2023-04-18T08:46:11.773Z,93290.97
2023-04-18T08:47:09.597Z,93291.69
2023-04-18T08:48:07.708Z,93286.59
2023-04-18T08:49:06.281Z,93286.72
2023-04-18T08:50:03.357Z,93285.06
2023-04-18T08:51:01.615Z,93278.84
2023-04-18T08:52:01.470Z,93178.69
2023-04-18T08:52:59.730Z,93242.78
2023-04-18T08:53:56.937Z,93277.16
2023-04-18T08:54:53.533Z,93283.41
2023-04-18T08:55:57.321Z,93280.41
2023-04-18T08:57:07.590Z,93279.09
2023-04-18T08:58:08.005Z,93277.19
2023-04-18T08:59:05.444Z,93277.38
2023-04-18T09:00:02.116Z,93277.88
2023-04-18T09:00:58.790Z,93257.34
2023-04-18T09:01:57.639Z,93279.31
2023-04-18T09:02:56.936Z,93271.50
2023-04-18T09:03:55.212Z,93266.16
2023-04-18T09:04:55.839Z,93279.66
2023-04-18T09:06:13.938Z,93272.44
2023-04-18T09:07:15.896Z,93215.78
2023-04-18T09:08:24.101Z,93277.47
2023-04-18T09:09:27.430Z,93275.28
2023-04-18T09:10:28.977Z,93268.94
2023-04-18T09:11:29.016Z,93271.88
2023-04-18T09:12:29.703Z,93272.09
2023-04-18T09:13:47.469Z,93274.16
2023-04-18T09:14:47.936Z,93271.66
2023-04-18T09:15:54.998Z,93273.28
2023-04-18T09:16:51.864Z,93269.72
2023-04-18T09:17:51.153Z,93258.22
2023-04-18T09:19:10.939Z,93269.47
2023-04-18T09:20:11.823Z,93269.22
2023-04-18T09:21:19.491Z,93239.28
2023-04-18T09:22:17.786Z,93271.06
2023-04-18T09:23:24.537Z,93193.28
2023-04-18T09:24:24.750Z,93249.91
2023-04-18T09:25:34.989Z,93270.44
2023-04-18T09:26:36.277Z,93257.94
2023-04-18T09:27:34.968Z,93264.09
2023-04-18T09:28:33.269Z,93268.41
2023-04-18T09:29:46.242Z,93266.88
2023-04-18T09:30:43.192Z,93260.19
2023-04-18T09:32:01.774Z,93272.22
2023-04-18T09:33:04.968Z,93280.53
2023-04-18T09:34:03.065Z,93267.56
2023-04-18T09:35:04.578Z,93252.50
2023-04-18T09:36:18.713Z,93267.41
2023-04-18T09:37:15.537Z,93266.34
2023-04-18T09:38:12.187Z,93261.75
2023-04-18T09:39:08.766Z,93262.19
2023-04-18T09:40:18.003Z,93239.13
2023-04-18T09:41:21.192Z,93221.81
2023-04-18T09:42:18.953Z,93255.47
2023-04-18T09:43:21.924Z,93258.19
2023-04-18T09:44:20.354Z,93256.47
2023-04-18T09:45:17.278Z,93268.25
2023-04-18T09:46:15.381Z,93261.44
2023-04-18T09:47:11.988Z,93259.81
2023-04-18T09:48:08.610Z,93262.56
2023-04-18T09:49:05.323Z,93258.13
2023-04-18T09:50:07.194Z,93258.69
2023-04-18T09:51:11.589Z,93258.66
2023-04-18T09:52:08.893Z,93261.69
2023-04-18T09:53:08.066Z,93265.50
2023-04-18T09:54:05.557Z,93257.69
2023-04-18T09:55:04.984Z,93253.63
2023-04-18T09:56:03.465Z,93254.78
2023-04-18T09:57:02.905Z,93246.88
2023-04-18T09:58:00.887Z,93245.72
2023-04-18T09:59:11.403Z,93256.19
2023-04-18T10:00:13.987Z,93254.31
2023-04-18T10:01:13.351Z,93237.06
2023-04-18T10:02:19.735Z,93258.44
2023-04-18T10:03:18.571Z,93258.31
2023-04-18T10:04:17.433Z,93226.66
2023-04-18T10:05:15.021Z,93254.88
2023-04-18T10:06:11.868Z,93257.94
2023-04-18T10:07:08.769Z,93246.38
2023-04-18T10:08:06.906Z,93219.03
2023-04-18T10:09:04.853Z,93259.06
2023-04-18T10:10:01.429Z,93251.78
2023-04-18T10:10:58.751Z,93226.97
2023-04-18T10:11:56.951Z,93252.13
2023-04-18T10:12:55.805Z,93261.94
2023-04-18T10:13:57.531Z,93279.72
2023-04-18T10:14:54.904Z,93257.44
2023-04-18T10:15:52.486Z,93267.66
2023-04-18T10:16:50.618Z,93263.34
2023-04-18T10:18:04.524Z,93263.03
2023-04-18T10:19:24.877Z,93269.13
2023-04-18T10:20:24.197Z,93263.03
2023-04-18T10:21:21.711Z,93243.03
2023-04-18T10:22:27.569Z,93254.75
2023-04-18T10:23:36.308Z,93257.53
2023-04-18T10:24:56.222Z,93262.50
2023-04-18T10:25:53.261Z,93255.59
2023-04-18T10:26:50.488Z,93252.22
2023-04-18T10:27:49.774Z,93251.06
2023-04-18T10:28:49.683Z,93247.75
2023-04-18T10:29:53.884Z,93248.16
2023-04-18T10:31:04.217Z,93246.19
2023-04-18T10:32:06.376Z,93247.66
2023-04-18T10:34:23.933Z,93253.91
2023-04-18T10:35:21.214Z,93249.59
2023-04-18T10:36:20.581Z,93274.16
2023-04-18T10:37:19.016Z,93250.41
2023-04-18T10:38:23.529Z,93243.50
2023-04-18T10:39:25.577Z,93253.56
2023-04-18T10:40:34.242Z,93246.91
2023-04-18T10:41:32.555Z,93263.97
2023-04-18T10:42:47.378Z,93267.75
2023-04-18T10:44:13.236Z,93253.75
2023-04-18T10:45:27.269Z,93243.34
2023-04-18T10:46:31.862Z,93256.44
2023-04-18T10:47:29.706Z,93257.69
2023-04-18T10:48:32.730Z,93252.38
2023-04-18T10:49:32.849Z,93255.53
2023-04-18T10:50:29.836Z,93256.78
2023-04-18T10:51:26.559Z,93239.28
2023-04-18T10:52:23.732Z,93244.69
2023-04-18T10:53:20.585Z,93245.63
2023-04-18T10:54:21.866Z,93226.66
2023-04-18T10:55:28.441Z,93265.91
2023-04-18T10:56:26.229Z,93252.69
2023-04-18T10:57:23.022Z,93251.53
2023-04-18T10:58:19.703Z,93250.31
2023-04-18T10:59:16.587Z,93243.09
2023-04-18T11:00:16.702Z,93200.59
2023-04-18T11:01:16.002Z,93245.81
2023-04-18T11:02:32.604Z,93248.81
2023-04-18T11:03:35.685Z,93207.44
2023-04-18T11:04:32.688Z,93249.81
2023-04-18T11:05:29.606Z,93254.53
2023-04-18T11:06:27.762Z,93242.53
2023-04-18T11:07:42.304Z,93245.63
2023-04-18T11:08:38.877Z,93235.34
2023-04-18T11:09:35.529Z,93236.97
2023-04-18T11:10:32.192Z,93238.69
2023-04-18T11:11:28.736Z,93237.06
2023-04-18T11:12:30.754Z,93235.94
2023-04-18T11:13:27.372Z,93235.25
2023-04-18T11:14:24.214Z,93246.53
2023-04-18T11:15:23.590Z,93237.94
2023-04-18T11:16:30.458Z,93234.19
2023-04-18T11:17:35.867Z,93205.41
2023-04-18T11:18:42.085Z,93228.88
2023-04-18T11:19:38.729Z,93234.53
2023-04-18T11:20:39.743Z,93238.50
2023-04-18T11:21:36.366Z,93187.53
2023-04-18T11:22:33.082Z,93198.38
2023-04-18T11:23:29.778Z,93230.03